sensor_id;sensor_type;location;lat;lon;timestamp;pressure;altitude;pressure_sealevel;temperature;humidity
39435;BME280;66825;51.880;-0.518;2024-03-08T00:00:15;100535.59;;;16.23;40.64
39435;BME280;66825;51.880;-0.518;2024-03-08T00:02:46;100516.69;;;16.12;40.91
39435;BME280;66825;51.880;-0.518;2024-03-08T00:05:13;100483.56;;;15.86;40.82
39435;BME280;66825;51.880;-0.518;2024-03-08T00:07:40;100538.63;;;16.21;41.01
39435;BME280;66825;51.880;-0.518;2024-03-08T00:10:07;100547.88;;;16.20;40.64
39435;BME280;66825;51.880;-0.518;2024-03-08T00:12:39;100519.16;;;16.09;40.93
39435;BME280;66825;51.880;-0.518;2024-03-08T00:15:07;100525.31;;;16.19;41.00
39435;BME280;66825;51.880;-0.518;2024-03-08T00:17:33;100426.88;;;15.45;40.68
39435;BME280;66825;51.880;-0.518;2024-03-08T00:19:58;100514.25;;;16.11;40.88
39435;BME280;66825;51.880;-0.518;2024-03-08T00:22:24;100475.66;;;15.84;40.77
39435;BME280;66825;51.880;-0.518;2024-03-08T00:24:49;100521.84;;;16.14;41.06
39435;BME280;66825;51.880;-0.518;2024-03-08T00:27:16;100503.69;;;16.09;40.96
39435;BME280;66825;51.880;-0.518;2024-03-08T00:29:42;100372.78;;;15.24;40.76
39435;BME280;66825;51.880;-0.518;2024-03-08T00:32:07;100508.53;;;16.12;40.62
39435;BME280;66825;51.880;-0.518;2024-03-08T00:34:36;100475.13;;;15.87;40.96
39435;BME280;66825;51.880;-0.518;2024-03-08T00:37:04;100502.59;;;16.10;40.80
39435;BME280;66825;51.880;-0.518;2024-03-08T00:39:30;100501.75;;;16.10;40.86
39435;BME280;66825;51.880;-0.518;2024-03-08T00:41:55;100490.97;;;16.04;40.87
39435;BME280;66825;51.880;-0.518;2024-03-08T00:44:21;100496.63;;;16.08;41.01
39435;BME280;66825;51.880;-0.518;2024-03-08T00:46:46;100494.22;;;16.07;40.65
39435;BME280;66825;51.880;-0.518;2024-03-08T00:49:12;100484.19;;;16.02;40.93
39435;BME280;66825;51.880;-0.518;2024-03-08T00:51:38;100483.09;;;16.03;40.79
39435;BME280;66825;51.880;-0.518;2024-03-08T00:54:03;100472.56;;;15.96;40.71
39435;BME280;66825;51.880;-0.518;2024-03-08T00:56:29;100168.50;;;14.06;41.05
39435;BME280;66825;51.880;-0.518;2024-03-08T00:58:54;100462.00;;;15.95;40.95
39435;BME280;66825;51.880;-0.518;2024-03-08T01:01:20;100479.28;;;16.04;40.78
39435;BME280;66825;51.880;-0.518;2024-03-08T01:03:45;100465.19;;;16.02;40.69
39435;BME280;66825;51.880;-0.518;2024-03-08T01:06:11;100466.81;;;16.03;41.16
39435;BME280;66825;51.880;-0.518;2024-03-08T01:08:37;100434.88;;;15.90;41.03
39435;BME280;66825;51.880;-0.518;2024-03-08T01:11:06;100454.13;;;15.93;40.67
39435;BME280;66825;51.880;-0.518;2024-03-08T01:13:31;100444.59;;;15.96;40.88
39435;BME280;66825;51.880;-0.518;2024-03-08T01:15:57;100442.97;;;15.95;40.88
39435;BME280;66825;51.880;-0.518;2024-03-08T01:18:22;100441.59;;;15.97;40.84
39435;BME280;66825;51.880;-0.518;2024-03-08T01:20:48;100449.72;;;15.97;40.84
39435;BME280;66825;51.880;-0.518;2024-03-08T01:23:13;100438.06;;;15.97;40.85
39435;BME280;66825;51.880;-0.518;2024-03-08T01:25:39;100433.72;;;15.96;41.01
39435;BME280;66825;51.880;-0.518;2024-03-08T01:28:05;100408.88;;;15.78;40.80
39435;BME280;66825;51.880;-0.518;2024-03-08T01:30:30;100381.94;;;15.57;40.98
39435;BME280;66825;51.880;-0.518;2024-03-08T01:32:58;100431.56;;;15.93;40.84
39435;BME280;66825;51.880;-0.518;2024-03-08T01:35:23;100427.75;;;15.94;40.79
39435;BME280;66825;51.880;-0.518;2024-03-08T01:37:49;100410.47;;;15.84;41.11
39435;BME280;66825;51.880;-0.518;2024-03-08T01:40:15;100419.91;;;15.92;40.64
39435;BME280;66825;51.880;-0.518;2024-03-08T01:42:42;100418.28;;;15.91;40.87
39435;BME280;66825;51.880;-0.518;2024-03-08T01:45:08;100404.78;;;15.86;40.76
39435;BME280;66825;51.880;-0.518;2024-03-08T01:47:34;100413.16;;;15.90;41.24
39435;BME280;66825;51.880;-0.518;2024-03-08T01:50:01;100406.59;;;15.91;40.92
39435;BME280;66825;51.880;-0.518;2024-03-08T01:52:32;100402.06;;;15.86;41.01
39435;BME280;66825;51.880;-0.518;2024-03-08T01:55:02;100411.53;;;15.88;41.02
39435;BME280;66825;51.880;-0.518;2024-03-08T01:57:34;100373.63;;;15.73;41.20
39435;BME280;66825;51.880;-0.518;2024-03-08T02:00:01;100397.19;;;15.83;41.06
39435;BME280;66825;51.880;-0.518;2024-03-08T02:02:31;100385.75;;;15.86;40.94
39435;BME280;66825;51.880;-0.518;2024-03-08T02:04:57;100377.16;;;15.73;41.29
39435;BME280;66825;51.880;-0.518;2024-03-08T02:07:23;100328.81;;;15.51;40.94
39435;BME280;66825;51.880;-0.518;2024-03-08T02:09:48;100379.78;;;15.84;41.13
39435;BME280;66825;51.880;-0.518;2024-03-08T02:12:14;100370.03;;;15.83;41.07
39435;BME280;66825;51.880;-0.518;2024-03-08T02:14:39;100365.94;;;15.80;41.00
39435;BME280;66825;51.880;-0.518;2024-03-08T02:17:05;100371.88;;;15.82;41.12
39435;BME280;66825;51.880;-0.518;2024-03-08T02:19:30;100354.91;;;15.71;41.21
39435;BME280;66825;51.880;-0.518;2024-03-08T02:21:57;100352.94;;;15.77;40.99
39435;BME280;66825;51.880;-0.518;2024-03-08T02:24:23;100295.78;;;15.39;41.16
39435;BME280;66825;51.880;-0.518;2024-03-08T02:26:49;100355.09;;;15.80;41.01
39435;BME280;66825;51.880;-0.518;2024-03-08T02:29:14;100348.03;;;15.79;40.88
39435;BME280;66825;51.880;-0.518;2024-03-08T02:31:40;100347.19;;;15.79;41.06
39435;BME280;66825;51.880;-0.518;2024-03-08T02:34:05;100336.09;;;15.75;41.17
39435;BME280;66825;51.880;-0.518;2024-03-08T02:36:31;100338.03;;;15.75;41.16
39435;BME280;66825;51.880;-0.518;2024-03-08T02:39:02;100289.69;;;15.52;41.11
39435;BME280;66825;51.880;-0.518;2024-03-08T02:41:28;100337.72;;;15.76;41.02
39435;BME280;66825;51.880;-0.518;2024-03-08T02:43:53;100251.91;;;15.32;41.12
39435;BME280;66825;51.880;-0.518;2024-03-08T02:46:21;100310.56;;;15.76;41.04
39435;BME280;66825;51.880;-0.518;2024-03-08T02:48:46;100311.66;;;15.75;41.14
39435;BME280;66825;51.880;-0.518;2024-03-08T02:51:12;100292.19;;;15.68;41.05
39435;BME280;66825;51.880;-0.518;2024-03-08T02:53:38;100281.41;;;15.63;40.82
39435;BME280;66825;51.880;-0.518;2024-03-08T02:56:04;100296.25;;;15.70;40.97
39435;BME280;66825;51.880;-0.518;2024-03-08T02:58:33;100299.47;;;15.72;41.15
39435;BME280;66825;51.880;-0.518;2024-03-08T03:00:59;100298.69;;;15.72;40.96
39435;BME280;66825;51.880;-0.518;2024-03-08T03:03:25;100296.75;;;15.72;40.85
39435;BME280;66825;51.880;-0.518;2024-03-08T03:05:52;100288.13;;;15.70;41.01
39435;BME280;66825;51.880;-0.518;2024-03-08T03:08:21;100287.28;;;15.70;41.16
39435;BME280;66825;51.880;-0.518;2024-03-08T03:10:46;100278.34;;;15.69;41.20
39435;BME280;66825;51.880;-0.518;2024-03-08T03:13:12;100284.56;;;15.70;41.09
39435;BME280;66825;51.880;-0.518;2024-03-08T03:15:39;100099.16;;;14.58;40.98
39435;BME280;66825;51.880;-0.518;2024-03-08T03:18:07;100269.38;;;15.69;41.25
39435;BME280;66825;51.880;-0.518;2024-03-08T03:20:33;100266.16;;;15.67;41.17
39435;BME280;66825;51.880;-0.518;2024-03-08T03:23:02;100257.78;;;15.63;41.20
39435;BME280;66825;51.880;-0.518;2024-03-08T03:25:28;100269.16;;;15.65;41.09
39435;BME280;66825;51.880;-0.518;2024-03-08T03:27:58;100256.75;;;15.59;41.04
39435;BME280;66825;51.880;-0.518;2024-03-08T03:30:25;100254.78;;;15.65;41.08
39435;BME280;66825;51.880;-0.518;2024-03-08T03:32:53;100243.16;;;15.59;41.16
39435;BME280;66825;51.880;-0.518;2024-03-08T03:35:20;100088.78;;;14.66;41.16
39435;BME280;66825;51.880;-0.518;2024-03-08T03:37:47;100246.94;;;15.63;41.02
39435;BME280;66825;51.880;-0.518;2024-03-08T03:40:41;100243.38;;;15.63;41.26
39435;BME280;66825;51.880;-0.518;2024-03-08T03:43:07;100256.16;;;15.62;41.54
39435;BME280;66825;51.880;-0.518;2024-03-08T03:45:32;100202.69;;;15.38;41.03
39435;BME280;66825;51.880;-0.518;2024-03-08T03:48:10;100239.34;;;15.60;41.26
39435;BME280;66825;51.880;-0.518;2024-03-08T03:50:36;100242.06;;;15.60;41.23
39435;BME280;66825;51.880;-0.518;2024-03-08T03:53:02;100235.00;;;15.59;41.21
39435;BME280;66825;51.880;-0.518;2024-03-08T03:55:28;100205.34;;;15.44;41.00
39435;BME280;66825;51.880;-0.518;2024-03-08T03:57:54;100226.06;;;15.59;41.36
39435;BME280;66825;51.880;-0.518;2024-03-08T04:00:19;100223.34;;;15.59;41.26
39435;BME280;66825;51.880;-0.518;2024-03-08T04:02:45;100202.34;;;15.45;41.30
39435;BME280;66825;51.880;-0.518;2024-03-08T04:05:12;100218.28;;;15.52;41.46
39435;BME280;66825;51.880;-0.518;2024-03-08T04:07:38;100221.75;;;15.57;41.23
39435;BME280;66825;51.880;-0.518;2024-03-08T04:10:06;100209.38;;;15.46;41.15
39435;BME280;66825;51.880;-0.518;2024-03-08T04:12:33;100174.53;;;15.34;41.18
39435;BME280;66825;51.880;-0.518;2024-03-08T04:14:59;100185.63;;;15.38;41.25
39435;BME280;66825;51.880;-0.518;2024-03-08T04:17:24;100208.81;;;15.49;41.36
39435;BME280;66825;51.880;-0.518;2024-03-08T04:19:50;100135.53;;;15.06;41.20
39435;BME280;66825;51.880;-0.518;2024-03-08T04:22:15;100083.56;;;14.74;41.19
39435;BME280;66825;51.880;-0.518;2024-03-08T04:24:43;100204.41;;;15.53;40.94
39435;BME280;66825;51.880;-0.518;2024-03-08T04:27:09;100202.81;;;15.52;41.18
39435;BME280;66825;51.880;-0.518;2024-03-08T04:29:34;100057.63;;;14.63;41.25
39435;BME280;66825;51.880;-0.518;2024-03-08T04:32:05;100213.94;;;15.51;41.28
39435;BME280;66825;51.880;-0.518;2024-03-08T04:34:33;100195.75;;;15.51;41.15
39435;BME280;66825;51.880;-0.518;2024-03-08T04:37:02;100172.91;;;15.33;41.40
39435;BME280;66825;51.880;-0.518;2024-03-08T04:39:30;100162.31;;;15.32;41.19
39435;BME280;66825;51.880;-0.518;2024-03-08T04:41:58;100189.81;;;15.49;41.26
39435;BME280;66825;51.880;-0.518;2024-03-08T04:44:24;100052.34;;;14.53;41.35
39435;BME280;66825;51.880;-0.518;2024-03-08T04:46:50;100199.03;;;15.48;41.15
39435;BME280;66825;51.880;-0.518;2024-03-08T04:49:15;100200.97;;;15.48;41.25
39435;BME280;66825;51.880;-0.518;2024-03-08T04:51:41;100090.66;;;14.70;41.21
39435;BME280;66825;51.880;-0.518;2024-03-08T04:54:06;100209.09;;;15.48;41.32
39435;BME280;66825;51.880;-0.518;2024-03-08T04:56:32;100215.63;;;15.47;41.30
39435;BME280;66825;51.880;-0.518;2024-03-08T04:58:58;100198.53;;;15.46;41.33
39435;BME280;66825;51.880;-0.518;2024-03-08T05:01:23;100045.06;;;14.48;41.39
39435;BME280;66825;51.880;-0.518;2024-03-08T05:03:49;100199.66;;;15.45;41.25
39435;BME280;66825;51.880;-0.518;2024-03-08T05:06:18;100187.16;;;15.44;41.30
39435;BME280;66825;51.880;-0.518;2024-03-08T05:08:46;100169.16;;;15.29;41.32
39435;BME280;66825;51.880;-0.518;2024-03-08T05:11:11;100182.16;;;15.32;41.17
39435;BME280;66825;51.880;-0.518;2024-03-08T05:13:40;100176.56;;;15.43;41.40
39435;BME280;66825;51.880;-0.518;2024-03-08T05:16:06;100132.41;;;15.18;41.47
39435;BME280;66825;51.880;-0.518;2024-03-08T05:18:35;100182.00;;;15.43;41.19
39435;BME280;66825;51.880;-0.518;2024-03-08T05:21:01;100155.88;;;15.28;41.34
39435;BME280;66825;51.880;-0.518;2024-03-08T05:23:30;100072.94;;;14.78;41.48
39435;BME280;66825;51.880;-0.518;2024-03-08T05:25:55;100013.69;;;14.42;41.38
39435;BME280;66825;51.880;-0.518;2024-03-08T05:28:21;100124.53;;;15.16;41.15
39435;BME280;66825;51.880;-0.518;2024-03-08T05:30:46;100117.75;;;15.19;41.20
39435;BME280;66825;51.880;-0.518;2024-03-08T05:33:12;100140.16;;;15.24;41.23
39435;BME280;66825;51.880;-0.518;2024-03-08T05:35:39;100153.84;;;15.38;41.36
39435;BME280;66825;51.880;-0.518;2024-03-08T05:38:05;100165.50;;;15.39;41.23
39435;BME280;66825;51.880;-0.518;2024-03-08T05:40:32;100151.13;;;15.38;41.25
39435;BME280;66825;51.880;-0.518;2024-03-08T05:42:58;100152.22;;;15.37;41.40
39435;BME280;66825;51.880;-0.518;2024-03-08T05:45:24;100137.63;;;15.33;41.39
39435;BME280;66825;51.880;-0.518;2024-03-08T05:47:50;100103.13;;;15.15;41.24
39435;BME280;66825;51.880;-0.518;2024-03-08T05:50:17;100123.31;;;15.28;41.44
39435;BME280;66825;51.880;-0.518;2024-03-08T05:52:43;100099.84;;;15.18;41.32
39435;BME280;66825;51.880;-0.518;2024-03-08T05:55:08;100128.09;;;15.36;41.22
39435;BME280;66825;51.880;-0.518;2024-03-08T05:57:35;100125.47;;;15.31;41.61
39435;BME280;66825;51.880;-0.518;2024-03-08T06:00:03;100115.69;;;15.30;41.40
39435;BME280;66825;51.880;-0.518;2024-03-08T06:02:29;100115.63;;;15.35;41.29
39435;BME280;66825;51.880;-0.518;2024-03-08T06:04:54;100098.66;;;15.24;41.28
39435;BME280;66825;51.880;-0.518;2024-03-08T06:07:20;100083.47;;;15.04;41.34
39435;BME280;66825;51.880;-0.518;2024-03-08T06:09:46;100107.78;;;15.33;41.39
39435;BME280;66825;51.880;-0.518;2024-03-08T06:12:12;100118.63;;;15.33;41.19
39435;BME280;66825;51.880;-0.518;2024-03-08T06:14:37;100103.44;;;15.32;41.41
39435;BME280;66825;51.880;-0.518;2024-03-08T06:17:03;100109.66;;;15.33;41.41
39435;BME280;66825;51.880;-0.518;2024-03-08T06:19:32;100094.78;;;15.30;41.47
39435;BME280;66825;51.880;-0.518;2024-03-08T06:21:58;100092.88;;;15.31;41.34
39435;BME280;66825;51.880;-0.518;2024-03-08T06:24:23;100093.97;;;15.30;41.30
39435;BME280;66825;51.880;-0.518;2024-03-08T06:26:49;100070.03;;;15.13;41.39
39435;BME280;66825;51.880;-0.518;2024-03-08T06:29:14;100085.00;;;15.29;41.47
39435;BME280;66825;51.880;-0.518;2024-03-08T06:31:40;100081.50;;;15.29;41.35
39435;BME280;66825;51.880;-0.518;2024-03-08T06:34:06;100041.44;;;15.01;41.41
39435;BME280;66825;51.880;-0.518;2024-03-08T06:36:33;100053.25;;;15.11;41.51
39435;BME280;66825;51.880;-0.518;2024-03-08T06:38:59;99933.47;;;14.41;41.35
39435;BME280;66825;51.880;-0.518;2024-03-08T06:41:24;100079.09;;;15.27;41.32
39435;BME280;66825;51.880;-0.518;2024-03-08T06:43:50;99997.06;;;14.73;41.52
39435;BME280;66825;51.880;-0.518;2024-03-08T06:46:17;100065.13;;;15.15;41.81
39435;BME280;66825;51.880;-0.518;2024-03-08T06:48:43;100075.56;;;15.27;41.52
39435;BME280;66825;51.880;-0.518;2024-03-08T06:51:08;100074.47;;;15.28;41.28
39435;BME280;66825;51.880;-0.518;2024-03-08T06:53:36;100020.09;;;14.95;41.48
39435;BME280;66825;51.880;-0.518;2024-03-08T06:56:02;100042.25;;;15.02;41.03
39435;BME280;66825;51.880;-0.518;2024-03-08T06:58:27;100087.69;;;15.34;41.12
39435;BME280;66825;51.880;-0.518;2024-03-08T07:00:53;100085.19;;;15.38;41.35
39435;BME280;66825;51.880;-0.518;2024-03-08T07:03:19;100070.00;;;15.37;41.21
39435;BME280;66825;51.880;-0.518;2024-03-08T07:05:44;100039.19;;;15.28;41.31
39435;BME280;66825;51.880;-0.518;2024-03-08T07:08:10;100074.16;;;15.48;41.11
39435;BME280;66825;51.880;-0.518;2024-03-08T07:10:38;100055.22;;;15.43;41.15
39435;BME280;66825;51.880;-0.518;2024-03-08T07:13:04;100069.16;;;15.55;41.18
39435;BME280;66825;51.880;-0.518;2024-03-08T07:15:29;100064.75;;;15.60;40.96
39435;BME280;66825;51.880;-0.518;2024-03-08T07:17:55;100064.97;;;15.63;40.82
39435;BME280;66825;51.880;-0.518;2024-03-08T07:20:21;100067.91;;;15.67;40.98
39435;BME280;66825;51.880;-0.518;2024-03-08T07:22:47;100062.97;;;15.69;41.03
39435;BME280;66825;51.880;-0.518;2024-03-08T07:25:13;100043.75;;;15.65;41.04
39435;BME280;66825;51.880;-0.518;2024-03-08T07:27:55;100048.38;;;15.65;41.02
39435;BME280;66825;51.880;-0.518;2024-03-08T07:30:25;100057.38;;;15.79;41.04
39435;BME280;66825;51.880;-0.518;2024-03-08T07:33:10;100051.94;;;15.79;40.95
39435;BME280;66825;51.880;-0.518;2024-03-08T07:35:39;100061.66;;;15.85;41.00
39435;BME280;66825;51.880;-0.518;2024-03-08T07:38:06;100032.59;;;15.67;41.13
39435;BME280;66825;51.880;-0.518;2024-03-08T07:40:43;100026.03;;;15.68;40.68
39435;BME280;66825;51.880;-0.518;2024-03-08T07:43:13;100066.09;;;15.95;40.79
39435;BME280;66825;51.880;-0.518;2024-03-08T07:45:39;100026.78;;;15.73;40.86
39435;BME280;66825;51.880;-0.518;2024-03-08T07:48:05;100028.28;;;15.80;40.70
39435;BME280;66825;51.880;-0.518;2024-03-08T07:50:37;100019.94;;;15.76;40.69
39435;BME280;66825;51.880;-0.518;2024-03-08T07:53:04;100059.19;;;16.03;40.72
39435;BME280;66825;51.880;-0.518;2024-03-08T07:55:32;100063.94;;;16.11;40.81
39435;BME280;66825;51.880;-0.518;2024-03-08T07:57:58;100059.28;;;16.12;40.99
39435;BME280;66825;51.880;-0.518;2024-03-08T08:00:24;100039.66;;;16.01;40.79
39435;BME280;66825;51.880;-0.518;2024-03-08T08:02:49;100055.38;;;16.18;40.36
39435;BME280;66825;51.880;-0.518;2024-03-08T08:05:15;100051.25;;;16.20;40.41
39435;BME280;66825;51.880;-0.518;2024-03-08T08:07:44;100056.88;;;16.24;40.52
39435;BME280;66825;51.880;-0.518;2024-03-08T08:10:12;100043.03;;;16.26;40.78
39435;BME280;66825;51.880;-0.518;2024-03-08T08:12:50;100036.75;;;16.25;40.64
39435;BME280;66825;51.880;-0.518;2024-03-08T08:15:16;100037.47;;;16.31;40.69
39435;BME280;66825;51.880;-0.518;2024-03-08T08:17:46;100026.72;;;16.26;40.37
39435;BME280;66825;51.880;-0.518;2024-03-08T08:20:13;100045.53;;;16.36;40.64
39435;BME280;66825;51.880;-0.518;2024-03-08T08:22:42;100037.88;;;16.38;40.56
39435;BME280;66825;51.880;-0.518;2024-03-08T08:25:08;100016.53;;;16.31;40.34
39435;BME280;66825;51.880;-0.518;2024-03-08T08:27:34;100033.16;;;16.44;40.27
39435;BME280;66825;51.880;-0.518;2024-03-08T08:30:02;100029.50;;;16.48;40.22
39435;BME280;66825;51.880;-0.518;2024-03-08T08:32:36;99985.44;;;16.24;40.56
39435;BME280;66825;51.880;-0.518;2024-03-08T08:35:02;100017.31;;;16.60;40.95
39435;BME280;66825;51.880;-0.518;2024-03-08T08:37:30;100023.16;;;16.67;40.98
39435;BME280;66825;51.880;-0.518;2024-03-08T08:39:56;99980.38;;;16.45;41.31
39435;BME280;66825;51.880;-0.518;2024-03-08T08:42:23;100022.66;;;16.79;41.09
39435;BME280;66825;51.880;-0.518;2024-03-08T08:44:48;100016.50;;;16.87;41.29
39435;BME280;66825;51.880;-0.518;2024-03-08T08:47:16;100015.28;;;16.93;41.12
39435;BME280;66825;51.880;-0.518;2024-03-08T08:49:44;99999.06;;;16.88;40.87
39435;BME280;66825;51.880;-0.518;2024-03-08T08:52:12;100019.09;;;17.06;40.72
39435;BME280;66825;51.880;-0.518;2024-03-08T08:54:37;99971.34;;;16.86;41.01
39435;BME280;66825;51.880;-0.518;2024-03-08T08:57:03;100014.22;;;17.17;41.25
39435;BME280;66825;51.880;-0.518;2024-03-08T08:59:33;99999.78;;;17.17;40.95
39435;BME280;66825;51.880;-0.518;2024-03-08T09:02:04;100001.19;;;17.28;40.45
39435;BME280;66825;51.880;-0.518;2024-03-08T09:04:29;99881.84;;;16.62;40.99
39435;BME280;66825;51.880;-0.518;2024-03-08T09:06:56;99998.19;;;17.38;40.78
39435;BME280;66825;51.880;-0.518;2024-03-08T09:09:22;99998.88;;;17.44;40.67
39435;BME280;66825;51.880;-0.518;2024-03-08T09:11:48;99960.94;;;17.25;40.46
39435;BME280;66825;51.880;-0.518;2024-03-08T09:14:15;99994.31;;;17.53;40.46
39435;BME280;66825;51.880;-0.518;2024-03-08T09:16:40;99876.44;;;16.85;40.70
39435;BME280;66825;51.880;-0.518;2024-03-08T09:19:06;99996.47;;;17.65;41.31
39435;BME280;66825;51.880;-0.518;2024-03-08T09:21:34;99976.25;;;17.66;40.96
39435;BME280;66825;51.880;-0.518;2024-03-08T09:24:02;99986.91;;;17.76;40.84
39435;BME280;66825;51.880;-0.518;2024-03-08T09:26:28;99941.13;;;17.56;41.13
39435;BME280;66825;51.880;-0.518;2024-03-08T09:28:53;99988.72;;;17.90;41.01
39435;BME280;66825;51.880;-0.518;2024-03-08T09:31:22;99968.69;;;17.86;41.23
39435;BME280;66825;51.880;-0.518;2024-03-08T09:33:47;99950.56;;;17.90;41.26
39435;BME280;66825;51.880;-0.518;2024-03-08T09:36:13;99973.78;;;18.10;41.17
39435;BME280;66825;51.880;-0.518;2024-03-08T09:38:39;99961.91;;;18.06;41.55
39435;BME280;66825;51.880;-0.518;2024-03-08T09:41:05;99956.47;;;18.15;40.80
39435;BME280;66825;51.880;-0.518;2024-03-08T09:43:31;99961.31;;;18.27;40.99
39435;BME280;66825;51.880;-0.518;2024-03-08T09:45:57;99957.66;;;18.31;40.77
39435;BME280;66825;51.880;-0.518;2024-03-08T09:48:23;99922.94;;;18.14;40.63
39435;BME280;66825;51.880;-0.518;2024-03-08T09:50:48;99819.53;;;17.60;40.69
39435;BME280;66825;51.880;-0.518;2024-03-08T09:53:15;99745.03;;;17.15;40.64
39435;BME280;66825;51.880;-0.518;2024-03-08T09:55:42;99936.19;;;18.47;40.27
39435;BME280;66825;51.880;-0.518;2024-03-08T09:58:14;99918.53;;;18.45;40.06
39435;BME280;66825;51.880;-0.518;2024-03-08T10:00:58;99922.72;;;18.60;40.19
39435;BME280;66825;51.880;-0.518;2024-03-08T10:03:24;99895.91;;;18.44;39.81
39435;BME280;66825;51.880;-0.518;2024-03-08T10:05:52;99928.81;;;18.65;39.86
39435;BME280;66825;51.880;-0.518;2024-03-08T10:08:17;99872.00;;;18.41;39.67
39435;BME280;66825;51.880;-0.518;2024-03-08T10:10:43;99907.16;;;18.69;39.70
39435;BME280;66825;51.880;-0.518;2024-03-08T10:13:09;99875.22;;;18.52;39.46
39435;BME280;66825;51.880;-0.518;2024-03-08T10:15:36;99870.88;;;18.60;39.44
39435;BME280;66825;51.880;-0.518;2024-03-08T10:18:02;99892.56;;;18.73;39.49
39435;BME280;66825;51.880;-0.518;2024-03-08T10:20:30;99781.84;;;18.11;39.61
39435;BME280;66825;51.880;-0.518;2024-03-08T10:23:00;99887.56;;;18.84;39.42
39435;BME280;66825;51.880;-0.518;2024-03-08T10:25:26;99836.69;;;18.62;39.44
39435;BME280;66825;51.880;-0.518;2024-03-08T10:27:51;99868.81;;;18.83;39.25
39435;BME280;66825;51.880;-0.518;2024-03-08T10:30:17;99875.56;;;18.94;39.29
39435;BME280;66825;51.880;-0.518;2024-03-08T10:32:47;99878.91;;;19.00;39.50
39435;BME280;66825;51.880;-0.518;2024-03-08T10:35:12;99864.94;;;19.01;39.35
39435;BME280;66825;51.880;-0.518;2024-03-08T10:37:46;99870.72;;;19.09;39.84
39435;BME280;66825;51.880;-0.518;2024-03-08T10:40:19;99853.84;;;19.15;39.87
39435;BME280;66825;51.880;-0.518;2024-03-08T10:42:52;99861.06;;;19.20;39.60
39435;BME280;66825;51.880;-0.518;2024-03-08T10:45:39;99859.75;;;19.26;39.35
39435;BME280;66825;51.880;-0.518;2024-03-08T10:48:30;99848.31;;;19.33;39.45
39435;BME280;66825;51.880;-0.518;2024-03-08T10:51:04;99788.50;;;19.01;39.33
39435;BME280;66825;51.880;-0.518;2024-03-08T10:53:30;99787.69;;;19.10;38.60
39435;BME280;66825;51.880;-0.518;2024-03-08T10:55:59;99829.81;;;19.39;38.33
39435;BME280;66825;51.880;-0.518;2024-03-08T10:58:26;99836.06;;;19.39;38.31
39435;BME280;66825;51.880;-0.518;2024-03-08T11:00:55;99823.56;;;19.38;38.21
39435;BME280;66825;51.880;-0.518;2024-03-08T11:06:17;99825.81;;;19.36;38.34
39435;BME280;66825;51.880;-0.518;2024-03-08T11:08:44;99815.69;;;19.36;40.56
39435;BME280;66825;51.880;-0.518;2024-03-08T11:11:29;99802.69;;;19.33;39.22
39435;BME280;66825;51.880;-0.518;2024-03-08T11:14:00;99803.63;;;19.38;39.07
39435;BME280;66825;51.880;-0.518;2024-03-08T11:19:00;99772.72;;;19.16;38.70
39435;BME280;66825;51.880;-0.518;2024-03-08T11:21:32;99748.00;;;19.12;38.25
39435;BME280;66825;51.880;-0.518;2024-03-08T11:24:23;99786.91;;;19.39;38.38
39435;BME280;66825;51.880;-0.518;2024-03-08T11:26:49;99786.91;;;19.39;38.21
39435;BME280;66825;51.880;-0.518;2024-03-08T11:32:17;99771.38;;;19.31;37.65
39435;BME280;66825;51.880;-0.518;2024-03-08T11:34:47;99775.53;;;19.37;37.88
39435;BME280;66825;51.880;-0.518;2024-03-08T11:37:16;99776.81;;;19.40;38.47
39435;BME280;66825;51.880;-0.518;2024-03-08T11:39:54;99777.44;;;19.36;38.12
39435;BME280;66825;51.880;-0.518;2024-03-08T11:42:25;99748.16;;;19.16;37.94
39435;BME280;66825;51.880;-0.518;2024-03-08T11:44:53;99769.63;;;19.26;37.91
39435;BME280;66825;51.880;-0.518;2024-03-08T11:47:20;99766.75;;;19.23;36.58
39435;BME280;66825;51.880;-0.518;2024-03-08T11:49:46;99769.00;;;19.20;36.04
39435;BME280;66825;51.880;-0.518;2024-03-08T11:52:14;99723.00;;;18.84;34.22
39435;BME280;66825;51.880;-0.518;2024-03-08T11:54:52;99761.06;;;18.98;35.91
39435;BME280;66825;51.880;-0.518;2024-03-08T11:57:23;99752.22;;;18.92;36.60
39435;BME280;66825;51.880;-0.518;2024-03-08T11:59:50;99736.66;;;18.84;36.58
39435;BME280;66825;51.880;-0.518;2024-03-08T12:02:16;99743.56;;;18.90;36.96
39435;BME280;66825;51.880;-0.518;2024-03-08T12:04:42;99732.66;;;18.90;36.79
39435;BME280;66825;51.880;-0.518;2024-03-08T12:07:10;99722.69;;;18.85;36.93
39435;BME280;66825;51.880;-0.518;2024-03-08T12:09:37;99714.66;;;18.89;36.66
39435;BME280;66825;51.880;-0.518;2024-03-08T12:12:03;99682.78;;;18.63;37.21
39435;BME280;66825;51.880;-0.518;2024-03-08T12:14:30;99721.25;;;18.88;36.94
39435;BME280;66825;51.880;-0.518;2024-03-08T12:16:57;99729.44;;;18.88;36.75
39435;BME280;66825;51.880;-0.518;2024-03-08T12:19:23;99711.78;;;18.77;36.80
39435;BME280;66825;51.880;-0.518;2024-03-08T12:21:48;99708.25;;;18.85;36.90
39435;BME280;66825;51.880;-0.518;2024-03-08T12:24:16;99698.78;;;18.82;36.87
39435;BME280;66825;51.880;-0.518;2024-03-08T12:26:45;99687.88;;;18.82;36.57
39435;BME280;66825;51.880;-0.518;2024-03-08T12:31:55;99680.50;;;18.83;36.89
39435;BME280;66825;51.880;-0.518;2024-03-08T12:34:23;99652.16;;;18.66;37.19
39435;BME280;66825;51.880;-0.518;2024-03-08T12:36:50;99663.63;;;18.81;36.82
39435;BME280;66825;51.880;-0.518;2024-03-08T12:39:19;99633.88;;;18.58;37.19
39435;BME280;66825;51.880;-0.518;2024-03-08T12:41:52;99657.38;;;18.80;36.63
39435;BME280;66825;51.880;-0.518;2024-03-08T12:44:18;99645.09;;;18.65;36.36
39435;BME280;66825;51.880;-0.518;2024-03-08T12:46:44;99657.84;;;18.82;37.08
39435;BME280;66825;51.880;-0.518;2024-03-08T12:49:10;99658.34;;;18.84;37.03
39435;BME280;66825;51.880;-0.518;2024-03-08T12:51:39;99542.09;;;18.15;36.69
39435;BME280;66825;51.880;-0.518;2024-03-08T12:54:05;99618.28;;;18.67;36.70